Time;durP1;ratioP1;P1;durP2;ratioP2;P2;SDS_P1;SDS_P2;PMS_P1;PMS_P2;Temp;Humidity;BMP_temperature;BMP_pressure;BME280_temperature;BME280_humidity;BME280_pressure;Samples;Min_cycle;Max_cycle;Signal;HPM_P1;HPM_P2
2022/01/06 00:00:16;;;;;;;9.55;0.52;;;3.60;99.90;;;;;;5115872;28;20373;-77
2022/01/06 00:02:41;;;;;;;5.93;0.38;;;3.70;99.90;;;;;;5096969;28;20039;-76
2022/01/06 00:05:08;;;;;;;10.93;0.90;;;3.70;99.90;;;;;;5114975;28;20043;-76
2022/01/06 00:07:34;;;;;;;13.07;0.85;;;3.80;99.90;;;;;;5096500;28;20044;-76
2022/01/06 00:10:00;;;;;;;11.52;1.17;;;3.70;99.90;;;;;;5096760;28;20046;-77
2022/01/06 00:12:38;;;;;;;22.13;0.82;;;3.60;99.90;;;;;;5097461;28;20122;-75
2022/01/06 00:15:30;;;;;;;8.88;0.88;;;3.50;99.90;;;;;;5073955;28;20420;-75
2022/01/06 00:25:46;;;;;;;12.27;0.68;;;3.30;99.90;;;;;;5077785;28;20118;-75
2022/01/06 00:28:13;;;;;;;14.30;1.13;;;3.30;99.90;;;;;;5077957;28;20433;-76
2022/01/06 00:30:38;;;;;;;15.48;1.42;;;3.40;99.90;;;;;;5076500;28;20040;-77
2022/01/06 00:33:04;;;;;;;14.18;0.90;;;3.30;99.90;;;;;;5077802;28;20055;-76
2022/01/06 00:35:30;;;;;;;16.10;0.90;;;3.30;99.90;;;;;;5077810;28;20057;-76
2022/01/06 00:37:56;;;;;;;23.67;1.83;;;3.30;99.90;;;;;;5076342;28;20079;-77
2022/01/06 00:40:21;;;;;;;12.43;0.70;;;3.30;99.90;;;;;;5078002;28;20040;-76
2022/01/06 00:42:47;;;;;;;17.67;0.95;;;3.30;99.90;;;;;;5078564;28;20051;-76
2022/01/06 00:45:13;;;;;;;20.45;1.63;;;3.30;99.90;;;;;;5077116;28;20040;-76
2022/01/06 00:47:39;;;;;;;17.95;1.30;;;3.30;99.90;;;;;;5077117;28;20131;-77
2022/01/06 00:50:05;;;;;;;26.48;2.60;;;3.20;99.90;;;;;;5076441;28;20048;-77
2022/01/06 00:52:31;;;;;;;21.30;1.65;;;3.20;99.90;;;;;;5075994;28;20048;-78
2022/01/06 00:54:57;;;;;;;25.70;1.77;;;3.30;99.90;;;;;;5076465;28;20045;-76
2022/01/06 00:57:23;;;;;;;21.05;1.52;;;3.50;99.90;;;;;;5077678;28;20097;-76
2022/01/06 00:59:49;;;;;;;31.00;2.10;;;3.60;99.90;;;;;;5059581;28;20048;-75
2022/01/06 01:02:14;;;;;;;25.42;2.55;;;3.50;99.90;;;;;;5078978;28;20043;-77
2022/01/06 01:04:40;;;;;;;18.30;1.00;;;3.30;99.90;;;;;;5078739;28;20146;-77
2022/01/06 01:07:06;;;;;;;17.30;1.20;;;3.30;99.90;;;;;;5078861;28;20059;-75
2022/01/06 01:09:31;;;;;;;23.23;1.80;;;3.00;99.90;;;;;;5079569;28;20044;-75
2022/01/06 01:12:02;;;;;;;14.10;1.48;;;2.90;99.90;;;;;;5080048;28;20079;-76
2022/01/06 01:14:31;;;;;;;23.00;1.55;;;2.90;99.90;;;;;;5111635;28;20491;-77
2022/01/06 01:17:00;;;;;;;26.00;1.35;;;2.80;99.90;;;;;;5121834;28;20055;-78
2022/01/06 01:19:28;;;;;;;20.02;1.25;;;2.80;99.90;;;;;;5119924;28;20044;-75
2022/01/06 01:21:54;;;;;;;23.83;1.70;;;2.70;99.90;;;;;;5120667;28;20043;-77
2022/01/06 01:24:21;;;;;;;30.02;2.55;;;2.70;99.90;;;;;;5100989;28;20437;-76
2022/01/06 01:26:47;;;;;;;20.83;1.52;;;2.70;99.90;;;;;;5120040;28;20052;-76
2022/01/06 01:29:18;;;;;;;21.73;1.42;;;2.60;99.90;;;;;;5101461;28;20042;-76
2022/01/06 01:31:48;;;;;;;20.52;1.60;;;2.60;99.90;;;;;;5120439;28;20055;-76
2022/01/06 01:34:16;;;;;;;19.77;1.20;;;2.50;99.90;;;;;;5119832;28;20047;-76
2022/01/06 01:36:43;;;;;;;28.15;3.08;;;2.50;99.90;;;;;;5135004;27;20054;-76
2022/01/06 01:39:09;;;;;;;21.80;1.63;;;2.50;99.90;;;;;;5084172;28;20144;-77
2022/01/06 01:41:35;;;;;;;30.27;1.53;;;2.40;99.90;;;;;;5096139;28;20059;-76
2022/01/06 01:44:04;;;;;;;19.08;1.17;;;2.40;99.90;;;;;;5095807;28;20326;-76
2022/01/06 01:46:30;;;;;;;21.60;1.73;;;2.50;99.90;;;;;;5113238;28;20054;-76
2022/01/06 01:51:39;;;;;;;21.13;1.13;;;2.50;99.90;;;;;;5080116;28;20484;-76
2022/01/06 01:54:05;;;;;;;21.98;1.42;;;2.50;99.90;;;;;;5095120;28;20047;-77
2022/01/06 01:56:31;;;;;;;26.27;1.75;;;2.50;99.90;;;;;;5095005;28;20074;-76
2022/01/06 01:58:58;;;;;;;26.75;1.83;;;2.60;99.90;;;;;;5113074;28;20091;-77
2022/01/06 02:01:23;;;;;;;15.30;1.08;;;2.50;99.90;;;;;;5096287;28;20127;-77
2022/01/06 02:03:49;;;;;;;15.38;1.20;;;2.60;99.90;;;;;;5114511;28;20082;-77
2022/01/06 02:06:15;;;;;;;26.55;2.25;;;2.50;99.90;;;;;;5114205;28;20051;-77
2022/01/06 02:08:41;;;;;;;32.17;1.88;;;2.40;99.90;;;;;;5094967;28;20063;-77
2022/01/06 02:11:07;;;;;;;25.42;1.67;;;2.40;99.90;;;;;;5113170;28;20444;-77
2022/01/06 02:13:43;;;;;;;27.15;2.45;;;2.40;99.90;;;;;;5117146;28;20051;-76
2022/01/06 02:16:09;;;;;;;32.40;1.75;;;2.50;99.90;;;;;;5117170;28;20094;-77
2022/01/06 02:18:35;;;;;;;22.73;2.45;;;2.50;99.90;;;;;;5121531;28;20035;-76
2022/01/06 02:21:00;;;;;;;27.75;2.13;;;2.50;99.90;;;;;;5106722;28;20054;-77
2022/01/06 02:23:26;;;;;;;26.00;1.80;;;2.50;99.90;;;;;;5100655;28;20318;-77
2022/01/06 02:25:52;;;;;;;29.38;2.47;;;2.40;99.90;;;;;;5098737;28;20048;-76
2022/01/06 02:28:22;;;;;;;24.67;1.60;;;2.40;99.90;;;;;;5098764;28;20120;-77
2022/01/06 02:30:51;;;;;;;22.23;1.88;;;2.30;99.90;;;;;;5098286;28;20083;-77
2022/01/06 02:33:18;;;;;;;32.83;2.20;;;2.30;99.90;;;;;;5116670;28;20048;-77
2022/01/06 02:35:44;;;;;;;;;;;2.40;99.90;;;;;;5117157;28;20542;-77
2022/01/06 02:38:12;;;;;;;25.57;1.40;;;2.30;99.90;;;;;;5098305;28;19931;-76
2022/01/06 02:40:38;;;;;;;23.92;1.20;;;2.30;99.90;;;;;;5115448;28;20051;-77
2022/01/06 02:43:06;;;;;;;26.45;1.95;;;2.20;99.90;;;;;;5116964;28;20110;-76
2022/01/06 02:45:33;;;;;;;19.00;1.38;;;2.10;99.90;;;;;;5116659;28;20039;-77
2022/01/06 02:48:08;;;;;;;21.13;1.92;;;2.10;99.90;;;;;;5116228;28;20066;-77
2022/01/06 02:50:37;;;;;;;17.55;1.25;;;2.10;99.90;;;;;;5132201;27;20065;-77
2022/01/06 02:53:03;;;;;;;21.13;1.30;;;2.10;99.90;;;;;;5098095;28;20043;-76
2022/01/06 02:55:29;;;;;;;19.02;1.73;;;2.10;99.90;;;;;;5115948;28;20487;-77
2022/01/06 02:57:54;;;;;;;22.40;1.38;;;2.20;99.90;;;;;;5116534;28;20048;-78
2022/01/06 03:00:20;;;;;;;25.80;1.55;;;2.10;99.90;;;;;;5081058;28;20055;-76
2022/01/06 03:02:46;;;;;;;21.33;1.05;;;2.10;99.90;;;;;;5097651;28;20395;-76
2022/01/06 03:05:14;;;;;;;28.23;1.70;;;2.00;99.90;;;;;;5115668;28;20048;-76
2022/01/06 03:07:40;;;;;;;;;;;2.00;99.90;;;;;;5097989;28;20058;-76
2022/01/06 03:10:09;;;;;;;24.73;1.30;;;1.90;99.90;;;;;;5097418;28;19961;-77
2022/01/06 03:12:43;;;;;;;20.27;1.70;;;1.90;99.90;;;;;;5131792;27;20287;-76
2022/01/06 03:15:10;;;;;;;19.27;2.30;;;1.90;99.90;;;;;;5131621;27;20059;-76
2022/01/06 03:17:43;;;;;;;20.48;1.50;;;1.90;99.90;;;;;;5115471;28;20040;-76
2022/01/06 03:20:11;;;;;;;19.85;1.20;;;1.90;99.90;;;;;;5080694;28;20055;-77
2022/01/06 03:22:37;;;;;;;19.08;1.70;;;1.90;99.90;;;;;;5096885;28;20048;-78
2022/01/06 03:25:05;;;;;;;26.35;1.95;;;1.90;99.90;;;;;;5096678;28;20105;-78
2022/01/06 03:27:33;;;;;;;23.92;1.35;;;1.90;99.90;;;;;;5115572;28;20159;-76
2022/01/06 03:29:59;;;;;;;21.65;1.73;;;1.90;99.90;;;;;;5115272;28;20093;-77
2022/01/06 03:32:24;;;;;;;17.25;1.08;;;1.80;99.90;;;;;;5097170;28;20051;-76
2022/01/06 03:34:50;;;;;;;15.48;1.40;;;1.70;99.90;;;;;;5097458;28;20478;-77
2022/01/06 03:37:16;;;;;;;18.27;1.25;;;1.60;99.90;;;;;;5096608;28;20479;-76
2022/01/06 03:39:43;;;;;;;19.27;1.10;;;1.60;99.90;;;;;;5096877;28;20047;-78
2022/01/06 03:42:10;;;;;;;15.85;0.90;;;1.40;99.90;;;;;;5131520;27;20455;-77
2022/01/06 03:44:36;;;;;;;24.77;1.48;;;1.40;99.90;;;;;;5115810;28;20082;-77
2022/01/06 03:47:03;;;;;;;13.60;1.08;;;1.30;99.90;;;;;;5096687;28;20047;-77
2022/01/06 03:49:29;;;;;;;16.00;0.98;;;1.20;99.90;;;;;;5114670;28;20510;-77
2022/01/06 03:51:55;;;;;;;13.07;1.02;;;1.20;99.90;;;;;;5114939;28;20071;-77
2022/01/06 03:54:21;;;;;;;19.23;1.23;;;1.10;99.90;;;;;;5131627;27;20058;-77
2022/01/06 03:56:48;;;;;;;23.35;1.48;;;1.10;99.90;;;;;;5115172;28;20048;-78
2022/01/06 03:59:16;;;;;;;14.68;0.90;;;1.00;99.90;;;;;;5114772;28;20102;-77
2022/01/06 04:01:43;;;;;;;20.13;1.55;;;1.00;99.90;;;;;;5096565;28;20043;-77
2022/01/06 04:04:09;;;;;;;21.52;1.50;;;1.00;99.90;;;;;;5114828;28;20158;-78
2022/01/06 04:06:35;;;;;;;19.52;1.10;;;0.90;99.90;;;;;;5114241;28;20039;-77
2022/01/06 04:09:01;;;;;;;17.92;1.02;;;0.90;99.90;;;;;;5114807;28;20046;-77
2022/01/06 04:11:26;;;;;;;21.08;1.30;;;0.90;99.90;;;;;;5096182;28;20062;-77
2022/01/06 04:13:52;;;;;;;24.75;1.48;;;1.00;99.90;;;;;;5096066;28;20067;-77
2022/01/06 04:16:18;;;;;;;18.45;1.02;;;1.00;99.90;;;;;;5114735;28;20480;-78
2022/01/06 04:18:44;;;;;;;24.45;1.65;;;1.00;99.90;;;;;;5114494;28;20047;-78
2022/01/06 04:21:10;;;;;;;20.08;1.70;;;0.80;99.90;;;;;;5114152;28;20082;-78
2022/01/06 04:23:36;;;;;;;19.45;1.10;;;0.80;99.90;;;;;;5114320;28;20043;-78
2022/01/06 04:26:02;;;;;;;18.33;1.60;;;0.80;99.90;;;;;;5095926;28;20506;-76
2022/01/06 04:28:28;;;;;;;17.00;0.90;;;0.70;99.90;;;;;;5096176;28;20065;-77
2022/01/06 04:30:55;;;;;;;14.90;1.20;;;0.60;99.90;;;;;;5095919;28;20523;-77
2022/01/06 04:33:20;;;;;;;13.07;1.17;;;0.60;99.90;;;;;;5114053;28;20043;-76
2022/01/06 04:35:46;;;;;;;10.32;1.38;;;0.60;99.90;;;;;;5113578;28;20766;-76
2022/01/06 04:38:12;;;;;;;18.02;1.20;;;0.50;99.90;;;;;;5113862;28;20127;-78
2022/01/06 04:40:38;;;;;;;18.15;1.63;;;0.60;99.90;;;;;;5113773;28;20083;-77
2022/01/06 04:43:05;;;;;;;17.17;1.00;;;0.50;99.90;;;;;;5113742;28;20043;-76
2022/01/06 04:45:31;;;;;;;17.35;1.05;;;0.50;99.90;;;;;;5129842;27;20079;-78
2022/01/06 04:47:57;;;;;;;16.67;1.00;;;0.50;99.90;;;;;;5114397;28;20136;-77
2022/01/06 04:50:22;;;;;;;20.60;1.50;;;0.40;99.90;;;;;;5078405;28;20482;-77
2022/01/06 04:52:49;;;;;;;17.45;1.20;;;0.50;99.90;;;;;;5113518;28;20484;-77
2022/01/06 04:55:14;;;;;;;22.38;1.52;;;0.60;99.90;;;;;;5095185;28;20364;-77
2022/01/06 04:57:40;;;;;;;17.35;1.40;;;0.60;99.90;;;;;;5095185;28;20047;-77
2022/01/06 05:00:07;;;;;;;27.98;1.30;;;0.60;99.90;;;;;;5113107;28;20546;-76
2022/01/06 05:02:33;;;;;;;20.02;1.42;;;0.60;99.90;;;;;;5113880;28;20043;-77
2022/01/06 05:04:59;;;;;;;28.85;1.98;;;0.60;99.90;;;;;;5095118;28;20039;-76
2022/01/06 05:07:25;;;;;;;15.45;1.48;;;0.70;99.90;;;;;;5112981;28;20050;-76
2022/01/06 05:09:51;;;;;;;15.05;1.05;;;0.60;99.90;;;;;;5113507;28;20364;-77
2022/01/06 05:12:16;;;;;;;14.13;1.35;;;0.60;99.90;;;;;;5114742;28;20043;-77
2022/01/06 05:14:42;;;;;;;12.48;1.25;;;0.60;99.90;;;;;;5122517;28;20491;-77
2022/01/06 05:17:08;;;;;;;12.00;1.10;;;0.50;99.90;;;;;;5116651;28;20069;-77
2022/01/06 05:19:34;;;;;;;11.15;1.33;;;0.40;99.90;;;;;;5062710;28;20040;-77
2022/01/06 05:22:01;;;;;;;21.85;1.58;;;0.40;99.90;;;;;;5095138;28;20383;-76
2022/01/06 05:24:27;;;;;;;14.95;1.55;;;0.30;99.90;;;;;;5094959;28;20104;-76
2022/01/06 05:26:56;;;;;;;12.23;0.95;;;0.30;99.90;;;;;;5129662;27;20067;-76
2022/01/06 05:29:23;;;;;;;23.33;1.45;;;0.20;99.90;;;;;;5115201;28;20097;-76
2022/01/06 05:31:49;;;;;;;17.75;1.35;;;0.20;99.90;;;;;;5113956;28;20365;-76
2022/01/06 05:34:15;;;;;;;15.35;0.93;;;0.10;99.90;;;;;;5112829;28;20514;-76
2022/01/06 05:36:41;;;;;;;17.20;1.08;;;0.10;99.90;;;;;;5077917;28;20043;-77
2022/01/06 05:39:07;;;;;;;20.63;1.23;;;0.00;99.90;;;;;;5094463;28;20035;-76
2022/01/06 05:41:34;;;;;;;13.65;1.00;;;0.00;99.90;;;;;;5094693;28;20480;-76
2022/01/06 05:44:00;;;;;;;17.97;1.37;;;0.00;99.90;;;;;;5113409;28;20048;-76
2022/01/06 05:46:26;;;;;;;21.50;1.08;;;-0.10;99.90;;;;;;5098414;28;20043;-76
2022/01/06 05:48:52;;;;;;;13.35;0.90;;;-0.10;99.90;;;;;;5077847;28;20070;-77
2022/01/06 05:51:18;;;;;;;12.82;0.95;;;-0.10;99.90;;;;;;5077514;28;20052;-77
2022/01/06 05:53:43;;;;;;;17.98;1.48;;;-0.20;99.90;;;;;;5112392;28;20130;-76
2022/01/06 05:56:09;;;;;;;12.90;1.38;;;-0.20;99.90;;;;;;5112343;28;20141;-77
2022/01/06 05:58:37;;;;;;;22.55;1.75;;;-0.30;99.90;;;;;;5111177;28;20130;-75
2022/01/06 06:01:03;;;;;;;16.25;1.67;;;-0.30;99.90;;;;;;5112443;28;20131;-77
2022/01/06 06:03:28;;;;;;;15.95;1.80;;;-0.30;99.90;;;;;;5128959;28;20048;-76
2022/01/06 06:05:55;;;;;;;17.48;1.70;;;-0.30;99.90;;;;;;5112228;28;20103;-76
2022/01/06 06:08:21;;;;;;;20.50;1.40;;;-0.30;99.90;;;;;;5093897;28;20059;-77
2022/01/06 06:10:47;;;;;;;13.05;1.20;;;-0.30;99.90;;;;;;5128963;28;20043;-77
2022/01/06 06:13:13;;;;;;;22.70;2.03;;;-0.30;99.90;;;;;;5111176;28;20058;-76
2022/01/06 06:15:39;;;;;;;21.45;1.40;;;-0.40;99.90;;;;;;5112325;28;20048;-76
2022/01/06 06:18:09;;;;;;;16.33;1.90;;;-0.40;99.90;;;;;;5094362;28;20508;-77
2022/01/06 06:20:35;;;;;;;25.00;2.17;;;-0.30;99.90;;;;;;5077712;28;20036;-78
2022/01/06 06:23:02;;;;;;;14.45;1.50;;;-0.50;99.90;;;;;;5112339;28;20054;-77
2022/01/06 06:25:27;;;;;;;19.00;1.95;;;-0.40;99.90;;;;;;5094132;28;20046;-78
2022/01/06 06:27:54;;;;;;;11.43;1.50;;;-0.50;99.90;;;;;;5077467;28;20044;-78
2022/01/06 06:30:20;;;;;;;14.35;1.52;;;-0.50;99.90;;;;;;5093998;28;20043;-77
2022/01/06 06:32:46;;;;;;;23.15;1.98;;;-0.50;99.90;;;;;;5112281;28;20048;-78
2022/01/06 06:35:12;;;;;;;25.02;1.48;;;-0.50;99.90;;;;;;5112199;28;20044;-77
2022/01/06 06:37:38;;;;;;;21.58;1.75;;;-0.50;99.90;;;;;;5112284;28;20144;-78
2022/01/06 06:40:05;;;;;;;19.38;2.08;;;-0.50;99.90;;;;;;5112369;28;20040;-78
2022/01/06 06:42:31;;;;;;;15.93;1.65;;;-0.40;99.90;;;;;;5094596;28;20120;-78
2022/01/06 06:44:57;;;;;;;17.30;1.80;;;-0.50;99.90;;;;;;5094275;28;20047;-78
2022/01/06 06:47:23;;;;;;;19.85;1.98;;;-0.60;99.90;;;;;;5128321;28;20047;-76
2022/01/06 06:49:49;;;;;;;21.23;2.10;;;-0.50;99.90;;;;;;5093881;28;20187;-79
2022/01/06 06:52:15;;;;;;;22.50;2.00;;;-0.50;99.90;;;;;;5112632;28;20039;-78
2022/01/06 06:54:41;;;;;;;17.75;2.28;;;-0.60;99.90;;;;;;5094308;28;20043;-77
2022/01/06 06:57:08;;;;;;;19.05;1.95;;;-0.60;99.90;;;;;;5094427;28;20048;-78
2022/01/06 06:59:34;;;;;;;20.43;2.23;;;-0.70;99.90;;;;;;5116152;28;20096;-78
2022/01/06 07:02:00;;;;;;;14.75;1.27;;;-0.70;99.90;;;;;;5132233;27;20062;-78
2022/01/06 07:04:26;;;;;;;13.45;1.73;;;-0.70;99.90;;;;;;5080591;28;20043;-78
2022/01/06 07:06:52;;;;;;;21.02;1.90;;;-0.70;99.90;;;;;;5097793;28;20047;-78
2022/01/06 07:09:18;;;;;;;18.98;1.73;;;-0.70;99.90;;;;;;5097611;28;20046;-77
2022/01/06 07:11:43;;;;;;;25.42;1.38;;;-0.80;99.90;;;;;;5115861;28;20048;-77
2022/01/06 07:14:09;;;;;;;17.75;1.90;;;-0.80;99.90;;;;;;5115727;28;20477;-78
2022/01/06 07:16:35;;;;;;;12.05;1.13;;;-0.70;99.90;;;;;;5115605;28;20047;-79
2022/01/06 07:19:00;;;;;;;17.80;1.90;;;-0.80;99.90;;;;;;5115411;28;20061;-78
2022/01/06 07:21:26;;;;;;;15.77;1.65;;;-0.80;99.90;;;;;;5115894;28;20431;-79
2022/01/06 07:23:52;;;;;;;17.00;1.33;;;-0.80;99.90;;;;;;5131386;27;20043;-78
2022/01/06 07:26:19;;;;;;;17.92;1.45;;;-0.80;99.90;;;;;;5115936;28;20054;-77
2022/01/06 07:28:45;;;;;;;15.55;1.67;;;-0.80;99.90;;;;;;5097255;28;20048;-79
2022/01/06 07:31:11;;;;;;;21.70;2.03;;;-0.90;99.90;;;;;;5115277;28;20045;-77
2022/01/06 07:33:37;;;;;;;15.73;1.75;;;-0.90;99.90;;;;;;5080142;28;20094;-78
2022/01/06 07:36:04;;;;;;;22.00;1.90;;;-0.90;99.90;;;;;;5115057;28;20040;-77
2022/01/06 07:38:29;;;;;;;21.25;1.80;;;-0.80;99.90;;;;;;5115026;28;20492;-77
2022/01/06 07:40:55;;;;;;;16.77;1.40;;;-0.90;99.90;;;;;;5131646;27;20059;-77
2022/01/06 07:43:22;;;;;;;19.98;2.13;;;-0.90;99.90;;;;;;5114907;28;20130;-77
2022/01/06 07:45:49;;;;;;;18.23;2.65;;;-0.90;99.90;;;;;;5097154;28;20047;-77
2022/01/06 07:48:17;;;;;;;20.02;3.17;;;-0.90;99.90;;;;;;5114782;28;20483;-78
2022/01/06 07:50:44;;;;;;;30.95;2.55;;;-0.90;99.90;;;;;;5114580;28;20484;-78
2022/01/06 07:53:10;;;;;;;16.13;2.00;;;-0.90;99.90;;;;;;5114889;28;20051;-79
2022/01/06 07:55:36;;;;;;;22.25;3.25;;;-0.90;99.90;;;;;;5115362;28;20057;-79
2022/01/06 07:58:03;;;;;;;19.38;1.63;;;-0.90;99.90;;;;;;5079758;28;20241;-79
2022/01/06 08:00:29;;;;;;;31.55;2.95;;;-0.90;99.90;;;;;;5115105;28;20463;-79
2022/01/06 08:02:55;;;;;;;18.67;2.07;;;-0.90;99.90;;;;;;5116215;28;20048;-79
2022/01/06 08:05:24;;;;;;;21.65;2.20;;;-0.90;99.90;;;;;;5085398;28;20404;-78
2022/01/06 08:07:50;;;;;;;22.83;2.78;;;-0.80;99.90;;;;;;5088523;28;20056;-78
2022/01/06 08:10:16;;;;;;;21.42;2.80;;;-0.80;99.90;;;;;;5080608;28;20055;-79
2022/01/06 08:12:42;;;;;;;26.63;2.10;;;-0.80;99.90;;;;;;5079949;28;20062;-79
2022/01/06 08:15:09;;;;;;;21.58;1.60;;;-0.80;99.90;;;;;;5097658;28;20047;-78
2022/01/06 08:17:36;;;;;;;26.20;2.72;;;-0.80;99.90;;;;;;5115279;28;20048;-81
2022/01/06 08:20:04;;;;;;;22.58;2.67;;;-0.80;99.90;;;;;;5114679;28;20055;-78
2022/01/06 08:22:30;;;;;;;19.88;2.10;;;-0.70;99.90;;;;;;5114877;28;20059;-79
2022/01/06 08:24:58;;;;;;;21.48;2.00;;;-0.70;99.90;;;;;;5095491;28;20055;-79
2022/01/06 08:27:24;;;;;;;21.02;1.60;;;-0.70;99.90;;;;;;5096232;28;20051;-79
2022/01/06 08:29:54;;;;;;;28.42;2.20;;;-0.70;99.90;;;;;;5096218;28;20044;-80
2022/01/06 08:32:20;;;;;;;28.48;2.35;;;-0.70;99.90;;;;;;5095962;28;20379;-79
2022/01/06 08:34:46;;;;;;;14.38;1.85;;;-0.60;99.90;;;;;;5130171;27;20047;-79
2022/01/06 08:37:12;;;;;;;24.80;2.45;;;-0.50;99.90;;;;;;5114892;28;20066;-78
2022/01/06 08:39:38;;;;;;;30.50;2.38;;;-0.50;99.90;;;;;;5114471;28;20047;-78
2022/01/06 08:42:04;;;;;;;17.80;1.90;;;-0.50;99.90;;;;;;5079231;28;20047;-79
2022/01/06 08:44:32;;;;;;;21.07;3.17;;;-0.40;99.90;;;;;;5096694;28;20044;-81
2022/01/06 08:47:00;;;;;;;17.70;2.05;;;-0.40;99.90;;;;;;5118403;28;20103;-80
2022/01/06 08:49:26;;;;;;;22.08;2.58;;;-0.30;99.90;;;;;;5135647;27;20083;-78
2022/01/06 08:51:52;;;;;;;23.75;2.58;;;-0.30;99.90;;;;;;5114302;28;20139;-79
2022/01/06 08:54:18;;;;;;;16.58;2.38;;;-0.30;99.90;;;;;;5129743;27;20055;-78
2022/01/06 08:56:44;;;;;;;20.35;2.92;;;-0.20;99.90;;;;;;5095115;28;20448;-79
2022/01/06 08:59:09;;;;;;;23.75;3.25;;;-0.20;99.90;;;;;;5113762;28;20048;-78
2022/01/06 09:01:35;;;;;;;26.30;3.00;;;-0.10;99.90;;;;;;5079587;28;20051;-78
2022/01/06 09:04:01;;;;;;;20.73;2.80;;;-0.10;99.90;;;;;;5115652;28;20340;-79
2022/01/06 09:06:27;;;;;;;31.08;3.55;;;0.10;99.90;;;;;;5096113;28;20036;-77
2022/01/06 09:08:53;;;;;;;29.38;3.28;;;0.00;99.90;;;;;;5061953;28;20130;-79
2022/01/06 09:11:18;;;;;;;32.30;3.92;;;0.00;99.90;;;;;;5078281;28;20110;-78
2022/01/06 09:13:44;;;;;;;22.33;3.97;;;0.10;99.90;;;;;;5094664;28;20066;-77
2022/01/06 09:16:10;;;;;;;32.40;5.68;;;0.20;99.90;;;;;;5113341;28;20052;-77
2022/01/06 09:18:37;;;;;;;24.35;5.10;;;0.20;99.90;;;;;;5112947;28;20084;-76
2022/01/06 09:21:05;;;;;;;30.53;4.80;;;0.30;99.90;;;;;;5128243;27;20081;-78
2022/01/06 09:23:31;;;;;;;23.35;4.30;;;0.30;99.90;;;;;;5061542;28;20290;-76
2022/01/06 09:25:57;;;;;;;25.92;3.90;;;0.40;99.90;;;;;;5113102;28;20089;-77
2022/01/06 09:28:23;;;;;;;24.02;3.33;;;0.40;99.90;;;;;;5112897;28;20039;-77
2022/01/06 09:30:52;;;;;;;24.20;4.85;;;0.40;99.90;;;;;;5094774;28;20063;-78
2022/01/06 09:33:21;;;;;;;22.70;3.83;;;0.50;99.90;;;;;;5113310;28;20270;-78
2022/01/06 09:35:48;;;;;;;36.10;3.65;;;0.50;99.90;;;;;;5112744;28;20118;-78
2022/01/06 09:38:15;;;;;;;27.73;3.45;;;0.60;99.90;;;;;;5128708;27;20051;-78
2022/01/06 09:40:43;;;;;;;27.65;3.58;;;0.60;99.90;;;;;;5111723;28;20051;-78
2022/01/06 09:43:12;;;;;;;28.50;3.63;;;0.60;99.90;;;;;;5094299;28;20083;-78
2022/01/06 09:45:38;;;;;;;30.83;5.53;;;0.80;99.90;;;;;;5094017;28;20448;-77
2022/01/06 09:48:05;;;;;;;25.90;3.35;;;0.80;99.90;;;;;;5112880;28;20094;-77
2022/01/06 09:50:32;;;;;;;28.02;2.63;;;0.90;99.90;;;;;;5128650;27;20055;-77
2022/01/06 09:52:58;;;;;;;18.65;2.42;;;0.90;99.90;;;;;;5094680;28;20050;-77
2022/01/06 09:55:24;;;;;;;17.67;2.58;;;1.00;99.90;;;;;;5094270;28;20550;-77
2022/01/06 09:58:00;;;;;;;17.45;2.75;;;1.00;99.90;;;;;;5094830;28;20047;-79
2022/01/06 10:00:28;;;;;;;35.80;3.13;;;1.20;99.90;;;;;;5094647;28;20540;-77
2022/01/06 10:03:01;;;;;;;29.73;3.17;;;1.20;99.90;;;;;;5094815;28;20048;-76
2022/01/06 10:05:40;;;;;;;20.92;2.45;;;1.30;99.90;;;;;;5093843;28;20063;-78
2022/01/06 10:08:07;;;;;;;21.42;3.70;;;1.40;99.90;;;;;;5113276;28;20048;-77
2022/01/06 10:10:34;;;;;;;24.58;3.45;;;1.40;99.90;;;;;;5112621;28;20043;-77
2022/01/06 10:13:06;;;;;;;28.10;3.17;;;1.60;99.90;;;;;;5094142;28;20507;-76
2022/01/06 10:15:33;;;;;;;20.52;2.63;;;1.60;99.90;;;;;;5094822;28;20126;-77
2022/01/06 10:18:10;;;;;;;24.35;2.42;;;1.70;99.90;;;;;;5128900;28;20111;-77
2022/01/06 10:20:36;;;;;;;20.75;2.45;;;1.80;99.90;;;;;;5112436;28;20471;-76
2022/01/06 10:23:01;;;;;;;18.65;2.85;;;1.90;99.90;;;;;;5094398;28;20055;-76
2022/01/06 10:25:31;;;;;;;19.42;3.53;;;2.00;99.90;;;;;;5112697;28;20047;-78
2022/01/06 10:27:57;;;;;;;25.42;3.42;;;2.10;99.90;;;;;;5112951;28;20044;-77
2022/01/06 10:30:26;;;;;;;21.50;2.65;;;2.10;99.90;;;;;;5094480;28;20380;-76
2022/01/06 10:32:58;;;;;;;15.57;2.80;;;2.20;99.90;;;;;;5113917;28;20165;-76
2022/01/06 10:35:23;;;;;;;23.85;3.40;;;2.20;99.90;;;;;;5116617;28;20452;-77
2022/01/06 10:37:50;;;;;;;20.10;3.00;;;2.30;99.90;;;;;;5098626;28;20126;-76
2022/01/06 10:40:22;;;;;;;27.25;2.67;;;2.40;99.90;;;;;;5115326;28;20364;-77
2022/01/06 10:42:51;;;;;;;23.52;2.58;;;2.50;99.90;;;;;;5117035;28;20058;-77
2022/01/06 10:45:24;;;;;;;26.85;3.10;;;2.60;99.90;;;;;;5115451;27;20192;-77
2022/01/06 10:47:52;;;;;;;26.15;2.67;;;2.60;99.90;;;;;;5115500;28;20043;-77
2022/01/06 10:50:36;;;;;;;21.40;2.60;;;2.70;99.90;;;;;;5098196;28;20055;-77
2022/01/06 10:53:08;;;;;;;19.33;2.55;;;2.70;99.90;;;;;;5117837;28;20043;-75
2022/01/06 10:55:43;;;;;;;19.48;2.15;;;2.80;99.90;;;;;;5118341;28;20043;-77
2022/01/06 10:58:29;;;;;;;20.73;2.47;;;2.90;99.90;;;;;;5119225;28;20048;-77
2022/01/06 11:00:57;;;;;;;16.92;1.75;;;3.00;99.90;;;;;;5127717;28;20052;-76
2022/01/06 11:03:35;;;;;;;16.75;2.38;;;3.10;99.90;;;;;;5130093;28;20047;-77
2022/01/06 11:06:03;;;;;;;37.97;2.75;;;3.20;99.90;;;;;;5105480;28;20039;-76
2022/01/06 11:08:31;;;;;;;23.42;2.83;;;3.30;99.90;;;;;;5121863;28;20039;-76
2022/01/06 11:13:40;;;;;;;28.65;2.88;;;3.50;99.90;;;;;;5122376;28;20055;-77
2022/01/06 11:16:07;;;;;;;24.50;2.67;;;3.50;99.90;;;;;;5103141;28;20131;-76
2022/01/06 11:18:34;;;;;;;19.88;2.28;;;3.60;99.90;;;;;;5122571;28;20040;-76
2022/01/06 11:21:13;;;;;;;20.52;2.30;;;3.60;99.90;;;;;;5103667;28;20475;-78
2022/01/06 11:23:39;;;;;;;24.20;3.03;;;3.70;99.90;;;;;;5117813;28;20051;-77
2022/01/06 11:26:15;;;;;;;23.25;2.70;;;3.70;99.90;;;;;;5098416;28;20078;-75
2022/01/06 11:28:43;;;;;;;23.52;3.22;;;3.60;99.90;;;;;;5115955;28;20107;-76
2022/01/06 11:31:18;;;;;;;24.88;2.67;;;3.70;99.90;;;;;;5098946;28;20063;-76
2022/01/06 11:33:47;;;;;;;20.40;2.25;;;3.70;99.90;;;;;;5097943;28;20043;-76
2022/01/06 11:36:23;;;;;;;15.90;2.20;;;3.70;99.90;;;;;;5116344;28;20050;-77
2022/01/06 11:38:50;;;;;;;17.02;1.77;;;3.80;99.90;;;;;;5115908;28;20039;-76
2022/01/06 11:41:17;;;;;;;20.63;2.42;;;3.90;99.90;;;;;;5115310;28;20138;-75
2022/01/06 11:43:46;;;;;;;22.23;2.20;;;3.90;99.90;;;;;;5114213;28;20036;-75
2022/01/06 11:46:12;;;;;;;21.75;2.00;;;4.00;99.90;;;;;;5114618;28;20043;-76
2022/01/06 11:48:53;;;;;;;13.50;1.63;;;4.00;99.90;;;;;;5080322;28;20359;-75
2022/01/06 11:51:31;;;;;;;28.30;2.50;;;4.10;99.90;;;;;;5115187;28;20400;-76
2022/01/06 11:53:58;;;;;;;19.38;1.58;;;4.20;99.90;;;;;;5131153;27;20379;-75
2022/01/06 11:56:26;;;;;;;19.52;2.40;;;4.20;99.90;;;;;;5096862;28;20051;-76
2022/01/06 11:59:03;;;;;;;21.85;1.63;;;4.20;99.90;;;;;;5079868;28;20116;-76
2022/01/06 12:01:44;;;;;;;22.33;1.77;;;4.20;99.90;;;;;;5115548;28;20047;-76
2022/01/06 12:04:15;;;;;;;13.63;1.70;;;4.20;99.90;;;;;;5096958;28;20096;-75
2022/01/06 12:06:41;;;;;;;23.02;1.83;;;4.30;99.90;;;;;;5114971;28;20051;-75
2022/01/06 12:09:24;;;;;;;17.02;1.90;;;4.30;99.90;;;;;;5117014;28;20047;-75
2022/01/06 12:12:11;;;;;;;23.30;2.72;;;4.20;99.90;;;;;;5113739;28;20405;-77
2022/01/06 12:14:37;;;;;;;21.90;2.13;;;4.40;99.90;;;;;;5115234;28;20421;-77
2022/01/06 12:17:08;;;;;;;20.67;1.77;;;4.40;99.90;;;;;;5114073;28;20059;-77
2022/01/06 12:19:35;;;;;;;19.90;2.50;;;4.40;99.90;;;;;;5097543;28;20047;-77
2022/01/06 12:22:03;;;;;;;19.45;1.92;;;4.40;99.90;;;;;;5116352;28;20416;-75
2022/01/06 12:24:29;;;;;;;20.98;2.20;;;4.40;99.90;;;;;;5132885;27;20055;-79
2022/01/06 12:26:55;;;;;;;17.85;2.28;;;4.40;99.90;;;;;;5098802;28;20128;-76
2022/01/06 12:29:26;;;;;;;22.10;3.28;;;4.50;99.90;;;;;;5080272;28;20071;-78
2022/01/06 12:32:02;;;;;;;17.35;3.05;;;4.60;99.90;;;;;;5131388;27;20047;-77
2022/01/06 12:34:28;;;;;;;22.07;3.17;;;4.70;99.90;;;;;;5130960;27;20341;-77
2022/01/06 12:36:54;;;;;;;21.23;2.75;;;4.70;99.90;;;;;;5114266;28;20292;-78
2022/01/06 12:39:21;;;;;;;20.45;1.98;;;4.70;99.90;;;;;;5114499;28;20096;-75
2022/01/06 12:41:49;;;;;;;18.75;1.77;;;4.70;99.90;;;;;;5114276;28;20055;-77
2022/01/06 12:44:28;;;;;;;31.27;2.53;;;4.70;99.90;;;;;;5130898;27;20051;-77
2022/01/06 12:46:55;;;;;;;18.65;1.45;;;4.80;99.90;;;;;;5114400;28;20076;-77
2022/01/06 12:49:22;;;;;;;20.80;2.15;;;4.90;99.90;;;;;;5096608;28;20089;-77
2022/01/06 12:51:48;;;;;;;23.35;1.85;;;4.90;99.90;;;;;;5113384;28;20260;-81
2022/01/06 12:54:23;;;;;;;19.70;1.70;;;4.90;99.90;;;;;;5096216;28;20195;-78
2022/01/06 12:56:54;;;;;;;18.85;1.65;;;5.00;99.90;;;;;;5096353;28;20452;-78
2022/01/06 12:59:34;;;;;;;12.63;1.48;;;4.90;99.90;;;;;;5113656;28;20040;-76